createdAt,value
2022-12-25T00:01:06.301Z,90.13
2022-12-25T00:03:33.185Z,89.82
2022-12-25T00:06:00.013Z,90.12
2022-12-25T00:08:26.754Z,89.74
2022-12-25T00:11:01.209Z,90.12
2022-12-25T00:13:28.576Z,89.85
2022-12-25T00:15:55.983Z,89.86
2022-12-25T00:18:23.731Z,90.34
2022-12-25T00:21:02.201Z,90.04
2022-12-25T00:23:29.832Z,90.22
2022-12-25T00:25:57.271Z,90.32
2022-12-25T00:28:24.584Z,90.24
2022-12-25T00:30:52.078Z,90.44
2022-12-25T00:33:19.093Z,90.27
2022-12-25T00:35:56.697Z,90.71
2022-12-25T00:38:23.427Z,90.76
2022-12-25T00:40:50.084Z,90.54
2022-12-25T00:43:16.869Z,90.81
2022-12-25T00:45:43.655Z,90.64
2022-12-25T00:48:10.306Z,90.88
2022-12-25T00:50:40.001Z,90.82
2022-12-25T00:53:06.774Z,91.18
2022-12-25T00:55:33.385Z,90.96
2022-12-25T00:58:00.154Z,91.13
2022-12-25T01:00:26.975Z,91.37
2022-12-25T01:02:53.789Z,91.30
2022-12-25T01:05:20.644Z,91.17
2022-12-25T01:07:47.404Z,91.36
2022-12-25T01:10:23.157Z,91.53
2022-12-25T01:12:51.461Z,91.39
2022-12-25T01:15:19.042Z,91.55
2022-12-25T01:17:46.947Z,91.69
2022-12-25T01:20:16.127Z,91.64
2022-12-25T01:22:43.426Z,91.61
2022-12-25T01:25:12.450Z,91.39
2022-12-25T01:27:41.116Z,91.75
2022-12-25T01:30:08.329Z,91.65
2022-12-25T01:32:35.142Z,91.50
2022-12-25T01:35:01.826Z,91.38
2022-12-25T01:37:28.475Z,91.28
2022-12-25T01:39:55.223Z,91.32
2022-12-25T01:42:23.792Z,91.47
2022-12-25T01:44:50.379Z,91.15
2022-12-25T01:47:18.928Z,91.43
2022-12-25T01:52:24.664Z,91.18
2022-12-25T01:54:57.733Z,90.89
2022-12-25T01:57:28.789Z,91.07
2022-12-25T01:59:57.736Z,90.95
2022-12-25T02:02:25.593Z,91.11
2022-12-25T02:05:19.437Z,91.06
2022-12-25T02:07:47.121Z,90.81
2022-12-25T02:10:13.835Z,91.11
2022-12-25T02:12:42.139Z,90.98
2022-12-25T02:15:13.018Z,91.13
2022-12-25T02:18:00.035Z,91.11
2022-12-25T02:20:57.424Z,91.06
2022-12-25T02:23:48.063Z,91.14
2022-12-25T02:26:32.286Z,91.09
2022-12-25T02:29:06.517Z,91.32
2022-12-25T02:31:43.536Z,91.32
2022-12-25T02:34:22.363Z,91.40
2022-12-25T02:37:23.514Z,91.43
2022-12-25T02:40:24.816Z,91.31
2022-12-25T02:43:19.680Z,91.43
2022-12-25T02:46:14.361Z,91.18
2022-12-25T02:49:08.924Z,91.25
2022-12-25T02:51:57.024Z,91.58
2022-12-25T02:54:47.403Z,91.30
2022-12-25T02:57:37.098Z,91.52
2022-12-25T03:00:24.125Z,91.23
2022-12-25T03:03:11.782Z,91.34
2022-12-25T03:06:00.622Z,91.51
2022-12-25T03:08:35.606Z,91.42
2022-12-25T03:11:24.331Z,91.22
2022-12-25T03:14:18.381Z,91.19
2022-12-25T03:16:53.044Z,91.50
2022-12-25T03:19:42.027Z,91.42
2022-12-25T03:22:32.503Z,91.22
2022-12-25T03:25:17.980Z,91.43
2022-12-25T03:27:49.312Z,91.34
2022-12-25T03:30:34.858Z,91.12
2022-12-25T03:33:44.900Z,91.02
2022-12-25T03:36:33.018Z,91.04
2022-12-25T03:39:29.290Z,90.90
2022-12-25T03:42:19.999Z,90.79
2022-12-25T03:45:39.346Z,90.79
2022-12-25T03:48:27.503Z,90.92
2022-12-25T03:51:22.247Z,90.65
2022-12-25T03:54:14.935Z,90.67
2022-12-25T03:57:01.312Z,90.65
2022-12-25T03:59:46.828Z,90.46
2022-12-25T04:02:32.340Z,90.22
2022-12-25T04:05:18.075Z,90.17
2022-12-25T04:08:03.671Z,90.34
2022-12-25T04:10:49.221Z,90.38
2022-12-25T04:13:34.655Z,90.18
2022-12-25T04:16:20.149Z,90.22
2022-12-25T04:19:05.651Z,90.25
2022-12-25T04:21:50.964Z,90.15
2022-12-25T04:24:36.381Z,89.94
2022-12-25T04:27:22.038Z,89.80
2022-12-25T04:30:07.284Z,89.91
2022-12-25T04:32:52.783Z,89.92
2022-12-25T04:35:38.181Z,89.86
2022-12-25T04:38:05.145Z,89.99
2022-12-25T04:40:33.247Z,89.72
2022-12-25T04:42:59.910Z,89.96
2022-12-25T04:45:26.884Z,90.03
2022-12-25T04:47:53.546Z,90.04
2022-12-25T04:50:20.248Z,89.93
2022-12-25T04:52:47.205Z,89.90
2022-12-25T04:55:14.181Z,90.00
2022-12-25T04:57:40.832Z,89.95
2022-12-25T05:00:08.300Z,89.80
2022-12-25T05:02:35.392Z,89.59
2022-12-25T05:05:02.328Z,89.94
2022-12-25T05:07:29.188Z,89.99
2022-12-25T05:09:55.819Z,89.67
2022-12-25T05:12:22.513Z,89.61
2022-12-25T05:14:49.507Z,89.72
2022-12-25T05:17:16.159Z,89.85
2022-12-25T05:19:43.061Z,89.68
2022-12-25T05:22:09.829Z,89.88
2022-12-25T05:24:36.539Z,89.97
2022-12-25T05:27:03.311Z,89.74
2022-12-25T05:29:30.197Z,89.87
2022-12-25T05:31:56.846Z,89.41
2022-12-25T05:34:23.728Z,89.51
2022-12-25T05:36:50.464Z,89.74
2022-12-25T05:39:17.167Z,89.50
2022-12-25T05:41:43.874Z,89.61
2022-12-25T05:44:10.983Z,89.70
2022-12-25T05:46:37.638Z,89.37
2022-12-25T05:49:05.873Z,89.38
2022-12-25T05:51:33.401Z,89.17
2022-12-25T05:54:00.118Z,89.18
2022-12-25T05:56:26.930Z,89.08
2022-12-25T05:58:53.766Z,89.20
2022-12-25T06:01:23.313Z,89.26
2022-12-25T06:03:50.295Z,88.86
2022-12-25T06:06:17.241Z,88.95
2022-12-25T06:08:43.956Z,88.67
2022-12-25T06:11:12.819Z,88.96
2022-12-25T06:13:39.769Z,88.80
2022-12-25T06:16:08.386Z,88.79
2022-12-25T06:18:44.801Z,88.82
2022-12-25T06:21:13.729Z,88.44
2022-12-25T06:23:41.421Z,88.68
2022-12-25T06:26:12.104Z,88.33
2022-12-25T06:28:39.073Z,88.39
2022-12-25T06:31:11.913Z,88.63
2022-12-25T06:33:39.222Z,88.60
2022-12-25T06:36:11.591Z,88.19
2022-12-25T06:38:38.671Z,88.65
2022-12-25T06:41:13.838Z,88.40
2022-12-25T06:43:40.756Z,88.47
2022-12-25T06:46:10.284Z,88.61
2022-12-25T06:48:38.560Z,88.32
2022-12-25T06:51:06.636Z,88.35
2022-12-25T06:53:39.867Z,88.42
2022-12-25T06:56:10.385Z,88.57
2022-12-25T06:58:37.059Z,88.51
2022-12-25T07:01:16.043Z,88.66
2022-12-25T07:03:45.349Z,88.75
2022-12-25T07:06:12.045Z,88.71
2022-12-25T07:08:38.896Z,88.86
2022-12-25T07:11:06.723Z,88.64
2022-12-25T07:13:33.713Z,88.74
2022-12-25T07:16:03.934Z,88.83
2022-12-25T07:18:31.312Z,88.70
2022-12-25T07:20:59.734Z,88.83
2022-12-25T07:23:27.334Z,88.89
2022-12-25T07:25:58.773Z,88.80
2022-12-25T07:28:26.016Z,88.55
2022-12-25T07:30:53.198Z,88.69
2022-12-25T07:33:19.820Z,88.95
2022-12-25T07:35:46.626Z,88.66
2022-12-25T07:38:13.448Z,89.02
2022-12-25T07:40:40.054Z,88.75
2022-12-25T07:43:06.767Z,88.96
2022-12-25T07:45:33.655Z,88.91
2022-12-25T07:48:05.218Z,88.71
2022-12-25T07:50:32.668Z,89.12
2022-12-25T07:52:59.714Z,89.04
2022-12-25T07:55:26.319Z,88.72
2022-12-25T07:57:53.074Z,89.01
2022-12-25T08:00:20.173Z,89.09
2022-12-25T08:02:50.319Z,88.74
2022-12-25T08:05:17.167Z,88.97
2022-12-25T08:07:44.043Z,88.76
2022-12-25T08:10:11.224Z,88.77
2022-12-25T08:12:37.927Z,88.70
2022-12-25T08:15:05.254Z,88.52
2022-12-25T08:17:34.355Z,88.87
2022-12-25T08:20:01.313Z,88.70
2022-12-25T08:22:27.997Z,88.34
2022-12-25T08:24:54.645Z,88.44
2022-12-25T08:27:21.337Z,88.27
2022-12-25T08:29:48.106Z,88.33
2022-12-25T08:32:14.724Z,88.27
2022-12-25T08:34:41.416Z,88.16
2022-12-25T08:37:08.315Z,88.10
2022-12-25T08:39:34.981Z,87.98
2022-12-25T08:42:01.724Z,88.01
2022-12-25T08:44:28.566Z,87.96
2022-12-25T08:46:55.256Z,87.50
2022-12-25T08:49:21.931Z,87.71
2022-12-25T08:51:48.883Z,87.80
2022-12-25T08:54:15.482Z,87.27
2022-12-25T08:56:42.098Z,87.28
2022-12-25T08:59:08.897Z,87.33
2022-12-25T09:01:35.636Z,87.37
2022-12-25T09:04:02.404Z,87.35
2022-12-25T09:06:29.225Z,87.21
2022-12-25T09:08:56.038Z,86.68
2022-12-25T09:11:23.739Z,86.81
2022-12-25T09:13:50.839Z,86.71
2022-12-25T09:16:20.827Z,86.60
2022-12-25T09:18:48.158Z,86.19
2022-12-25T09:21:16.822Z,86.03
2022-12-25T09:23:43.693Z,85.89
2022-12-25T09:26:16.604Z,85.84
2022-12-25T09:28:50.235Z,85.57
2022-12-25T09:31:18.586Z,85.55
2022-12-25T09:33:45.600Z,85.34
2022-12-25T09:36:12.279Z,85.59
2022-12-25T09:38:39.106Z,85.64
2022-12-25T09:41:06.152Z,85.30
2022-12-25T09:43:39.895Z,85.54
2022-12-25T09:46:15.051Z,85.30
2022-12-25T09:48:48.205Z,85.38
2022-12-25T09:51:16.948Z,85.23
2022-12-25T09:53:55.420Z,85.20
2022-12-25T09:56:26.129Z,85.35
2022-12-25T09:58:53.867Z,85.53
2022-12-25T10:01:23.223Z,85.60
2022-12-25T10:04:03.611Z,85.45
2022-12-25T10:06:56.960Z,85.26
2022-12-25T10:09:26.267Z,85.28
2022-12-25T10:12:29.525Z,85.39
2022-12-25T10:15:15.319Z,85.50
2022-12-25T10:17:54.030Z,84.97
2022-12-25T10:20:56.422Z,85.02
2022-12-25T10:23:28.735Z,84.88
2022-12-25T10:25:55.693Z,84.72
2022-12-25T10:28:44.984Z,84.48
2022-12-25T10:31:33.716Z,84.18
2022-12-25T10:34:00.657Z,83.92
2022-12-25T10:36:29.243Z,83.60
2022-12-25T10:38:56.443Z,83.17
2022-12-25T10:41:49.714Z,83.02
2022-12-25T10:44:24.619Z,82.93
2022-12-25T10:46:55.670Z,82.36
2022-12-25T10:49:25.220Z,82.61
2022-12-25T10:51:51.957Z,82.41
2022-12-25T10:54:25.268Z,81.86
2022-12-25T10:57:10.375Z,82.02
2022-12-25T10:59:49.649Z,81.86
2022-12-25T11:02:20.601Z,82.15
2022-12-25T11:04:48.170Z,82.27
2022-12-25T11:07:24.666Z,82.01
2022-12-25T11:09:51.245Z,81.70
2022-12-25T11:16:14.204Z,82.25
2022-12-25T11:18:47.140Z,82.51
2022-12-25T11:21:23.584Z,82.60
2022-12-25T11:23:57.999Z,82.68
2022-12-25T11:26:25.489Z,82.59
2022-12-25T11:28:54.753Z,82.74
2022-12-25T11:31:39.593Z,83.05
2022-12-25T11:34:18.386Z,83.03
2022-12-25T11:36:51.881Z,82.99
2022-12-25T11:39:27.187Z,83.27
2022-12-25T11:42:02.325Z,83.23
2022-12-25T11:44:37.864Z,83.36
2022-12-25T11:47:15.655Z,83.43
2022-12-25T11:49:57.302Z,83.29
2022-12-25T11:52:32.146Z,82.80
2022-12-25T11:55:08.583Z,83.07
2022-12-25T11:57:37.937Z,83.00
2022-12-25T12:00:10.327Z,82.86
2022-12-25T12:02:50.037Z,82.65
2022-12-25T12:05:38.742Z,83.03
2022-12-25T12:08:06.803Z,82.49
2022-12-25T12:10:36.278Z,82.41
2022-12-25T12:13:27.802Z,82.67
2022-12-25T12:15:54.745Z,82.27
2022-12-25T12:18:27.211Z,82.52
2022-12-25T12:21:07.843Z,82.51
2022-12-25T12:23:49.236Z,82.41
2022-12-25T12:26:21.904Z,82.01
2022-12-25T12:28:50.876Z,82.09
2022-12-25T12:31:17.854Z,82.38
2022-12-25T12:33:55.042Z,82.22
2022-12-25T12:36:35.565Z,82.22
2022-12-25T12:39:05.401Z,82.01
2022-12-25T12:41:46.389Z,81.90
2022-12-25T12:44:15.556Z,81.92
2022-12-25T12:46:51.987Z,81.48
2022-12-25T12:49:28.022Z,81.88
2022-12-25T12:52:25.030Z,81.49
2022-12-25T12:55:04.713Z,81.49
2022-12-25T12:57:39.935Z,81.40
2022-12-25T13:00:19.803Z,81.20
2022-12-25T13:03:01.516Z,80.93
2022-12-25T13:05:37.712Z,80.96
2022-12-25T13:08:21.989Z,80.59
2022-12-25T13:10:52.445Z,80.72
2022-12-25T13:13:24.741Z,80.40
2022-12-25T13:15:52.600Z,80.60
2022-12-25T13:18:20.652Z,80.17
2022-12-25T13:20:58.326Z,80.31
2022-12-25T13:23:35.229Z,80.06
2022-12-25T13:26:12.796Z,80.26
2022-12-25T13:28:39.660Z,79.81
2022-12-25T13:31:11.391Z,79.76
2022-12-25T13:33:39.150Z,79.66
2022-12-25T13:36:11.662Z,79.59
2022-12-25T13:38:43.242Z,79.53
2022-12-25T13:41:28.494Z,79.31
2022-12-25T13:43:58.871Z,79.25
2022-12-25T13:46:27.553Z,79.15
2022-12-25T13:49:02.750Z,78.82
2022-12-25T13:51:29.491Z,78.95
2022-12-25T13:54:07.078Z,78.78
2022-12-25T13:56:35.135Z,78.34
2022-12-25T13:59:03.803Z,78.43
2022-12-25T14:01:30.865Z,78.73
2022-12-25T14:03:57.886Z,78.51
2022-12-25T14:06:30.863Z,78.77
2022-12-25T14:08:58.980Z,78.48
2022-12-25T14:11:28.309Z,78.56
2022-12-25T14:14:00.219Z,79.04
2022-12-25T14:16:27.805Z,79.07
2022-12-25T14:19:00.677Z,79.21
2022-12-25T14:21:35.936Z,79.17
2022-12-25T14:24:02.670Z,79.18
2022-12-25T14:26:33.742Z,79.03
2022-12-25T14:29:10.152Z,79.46
2022-12-25T14:31:42.585Z,79.45
2022-12-25T14:34:21.130Z,79.52
2022-12-25T14:36:48.542Z,79.48
2022-12-25T14:39:32.865Z,79.73
2022-12-25T14:42:01.880Z,79.74
2022-12-25T14:44:34.804Z,79.50
2022-12-25T14:47:05.454Z,79.65
2022-12-25T14:49:32.630Z,79.59
2022-12-25T14:51:59.710Z,79.64
2022-12-25T14:54:27.022Z,80.06
2022-12-25T14:56:56.277Z,80.05
2022-12-25T14:59:27.163Z,80.19
2022-12-25T15:02:01.115Z,80.20
2022-12-25T15:04:29.984Z,80.37
2022-12-25T15:07:07.244Z,80.26
2022-12-25T15:09:36.213Z,80.14
2022-12-25T15:12:03.065Z,80.15
2022-12-25T15:14:31.702Z,80.47
2022-12-25T15:17:02.599Z,80.51
2022-12-25T15:19:38.259Z,80.55
2022-12-25T15:22:05.991Z,80.29
2022-12-25T15:24:32.828Z,80.50
2022-12-25T15:27:00.791Z,80.75
2022-12-25T15:30:07.421Z,80.89
2022-12-25T15:32:21.354Z,80.69
2022-12-25T15:34:50.199Z,80.85
2022-12-25T15:37:18.211Z,81.12
2022-12-25T15:39:45.732Z,81.24
2022-12-25T15:42:22.919Z,81.41
2022-12-25T15:44:50.489Z,81.38
2022-12-25T15:47:20.212Z,81.59
2022-12-25T15:49:47.249Z,81.35
2022-12-25T15:52:15.821Z,81.82
2022-12-25T15:54:42.825Z,81.96
2022-12-25T15:57:19.809Z,81.93
2022-12-25T15:59:46.547Z,81.88
2022-12-25T16:02:19.281Z,82.34
2022-12-25T16:04:46.343Z,82.33
2022-12-25T16:07:18.104Z,82.23
2022-12-25T16:09:45.590Z,82.72
2022-12-25T16:12:12.461Z,82.66
2022-12-25T16:14:39.117Z,82.77
2022-12-25T16:17:05.925Z,82.83
2022-12-25T16:19:32.907Z,83.24
2022-12-25T16:21:59.559Z,83.15
2022-12-25T16:24:26.263Z,83.17
2022-12-25T16:26:53.269Z,83.08
2022-12-25T16:29:19.927Z,82.98
2022-12-25T16:31:46.801Z,83.38
2022-12-25T16:34:13.766Z,83.08
2022-12-25T16:36:40.479Z,83.35
2022-12-25T16:39:07.307Z,83.47
2022-12-25T16:41:34.222Z,83.31
2022-12-25T16:44:09.216Z,83.38
2022-12-25T16:46:37.845Z,83.62
2022-12-25T16:49:04.602Z,83.59
2022-12-25T16:51:31.306Z,83.23
2022-12-25T16:53:58.397Z,83.43
2022-12-25T16:56:28.638Z,83.90
2022-12-25T16:58:57.186Z,83.60
2022-12-25T17:01:24.380Z,83.72
2022-12-25T17:03:52.056Z,83.67
2022-12-25T17:06:24.906Z,83.96
2022-12-25T17:08:55.386Z,83.88
2022-12-25T17:11:27.329Z,83.91
2022-12-25T17:13:54.422Z,83.94
2022-12-25T17:16:25.052Z,83.94
2022-12-25T17:19:02.732Z,84.30
2022-12-25T17:21:29.783Z,84.19
2022-12-25T17:24:02.289Z,84.26
2022-12-25T17:26:34.248Z,84.09
2022-12-25T17:29:01.432Z,83.99
2022-12-25T17:31:28.799Z,84.04
2022-12-25T17:33:55.845Z,84.35
2022-12-25T17:36:23.087Z,84.21
2022-12-25T17:38:50.153Z,84.70
2022-12-25T17:41:18.984Z,84.44
2022-12-25T17:43:46.224Z,84.80
2022-12-25T17:46:22.135Z,84.85
2022-12-25T17:48:52.879Z,84.92
2022-12-25T17:51:22.588Z,85.35
2022-12-25T17:53:54.655Z,85.44
2022-12-25T17:56:22.326Z,85.63
2022-12-25T17:58:53.928Z,85.84
2022-12-25T18:01:21.890Z,85.65
2022-12-25T18:03:49.120Z,86.38
2022-12-25T18:06:19.591Z,86.28
2022-12-25T18:08:47.266Z,86.52
2022-12-25T18:11:18.541Z,86.80
2022-12-25T18:13:48.591Z,87.07
2022-12-25T18:16:16.158Z,86.85
2022-12-25T18:18:51.136Z,86.85
2022-12-25T18:21:19.308Z,87.23
2022-12-25T18:23:46.657Z,87.13
2022-12-25T18:26:13.990Z,87.20
2022-12-25T18:28:42.865Z,87.34
2022-12-25T18:31:18.989Z,87.65
2022-12-25T18:33:46.320Z,87.41
2022-12-25T18:36:15.258Z,87.67
2022-12-25T18:38:42.579Z,87.28
2022-12-25T18:41:10.505Z,87.49
2022-12-25T18:43:53.185Z,87.52
2022-12-25T18:46:24.478Z,87.26
2022-12-25T18:48:52.149Z,87.31
2022-12-25T18:51:18.994Z,87.31
2022-12-25T18:53:46.317Z,87.20
2022-12-25T18:56:18.257Z,87.09
2022-12-25T18:58:46.512Z,87.49
2022-12-25T19:01:20.045Z,87.70
2022-12-25T19:03:49.049Z,87.42
2022-12-25T19:06:21.356Z,87.19
2022-12-25T19:08:48.414Z,87.43
2022-12-25T19:11:15.765Z,87.21
2022-12-25T19:13:42.819Z,87.52
2022-12-25T19:16:10.266Z,87.27
2022-12-25T19:18:37.878Z,87.05
2022-12-25T19:21:06.887Z,87.07
2022-12-25T19:23:34.317Z,87.13
2022-12-25T19:26:01.107Z,86.89
2022-12-25T19:28:27.895Z,86.71
2022-12-25T19:30:54.954Z,86.64
2022-12-25T19:33:22.118Z,86.54
2022-12-25T19:35:49.299Z,86.46
2022-12-25T19:38:16.386Z,86.13
2022-12-25T19:41:00.608Z,86.00
2022-12-25T19:43:35.589Z,85.73
2022-12-25T19:46:02.953Z,85.65
2022-12-25T19:48:31.115Z,85.50
2022-12-25T19:50:58.345Z,85.21
2022-12-25T19:53:25.861Z,85.68
2022-12-25T19:55:53.726Z,85.58
2022-12-25T19:58:21.597Z,85.34
2022-12-25T20:01:02.949Z,85.34
2022-12-25T20:03:29.731Z,84.95
2022-12-25T20:05:56.658Z,85.28
2022-12-25T20:08:23.770Z,85.23
2022-12-25T20:10:50.970Z,85.08
2022-12-25T20:13:18.218Z,85.19
2022-12-25T20:15:45.237Z,85.26
2022-12-25T20:18:11.926Z,85.34
2022-12-25T20:20:38.578Z,85.61
2022-12-25T20:23:06.088Z,85.40
2022-12-25T20:25:32.720Z,85.37
2022-12-25T20:27:59.441Z,85.36
2022-12-25T20:30:26.429Z,85.32
2022-12-25T20:32:53.198Z,85.15
2022-12-25T20:35:19.840Z,85.28
2022-12-25T20:37:46.828Z,84.98
2022-12-25T20:40:13.530Z,85.25
2022-12-25T20:42:40.257Z,85.15
2022-12-25T20:45:07.837Z,85.02
2022-12-25T20:47:35.357Z,85.00
2022-12-25T20:50:02.438Z,85.15
2022-12-25T20:52:29.267Z,85.13
2022-12-25T20:54:55.929Z,85.18
2022-12-25T20:57:22.598Z,85.09
2022-12-25T20:59:49.453Z,85.09
2022-12-25T21:02:34.211Z,85.14
2022-12-25T21:05:03.840Z,85.12
2022-12-25T21:07:30.689Z,85.15
2022-12-25T21:09:57.341Z,85.04
2022-12-25T21:12:24.123Z,85.29
2022-12-25T21:14:50.898Z,85.19
2022-12-25T21:17:17.885Z,85.02
2022-12-25T21:19:44.872Z,85.10
2022-12-25T21:22:12.064Z,85.08
2022-12-25T21:24:38.776Z,85.09
2022-12-25T21:27:05.706Z,85.10
2022-12-25T21:30:32.155Z,85.09
2022-12-25T21:34:14.044Z,85.02
2022-12-25T21:41:23.280Z,85.05
2022-12-25T21:44:49.724Z,85.02
2022-12-25T21:51:34.111Z,84.87
2022-12-25T21:54:01.577Z,85.01
2022-12-25T21:56:31.013Z,85.01
2022-12-25T21:59:03.118Z,85.12
2022-12-25T22:01:30.912Z,85.14
2022-12-25T22:04:03.517Z,84.89
2022-12-25T22:06:53.007Z,85.06
2022-12-25T22:09:20.512Z,85.03
2022-12-25T22:12:06.383Z,84.86
2022-12-25T22:14:54.787Z,84.86
2022-12-25T22:17:44.237Z,84.97
2022-12-25T22:20:34.880Z,84.99
2022-12-25T22:23:02.170Z,84.74
2022-12-25T22:25:29.436Z,84.97
2022-12-25T22:27:57.434Z,84.91
2022-12-25T22:30:27.439Z,84.84
2022-12-25T22:32:54.308Z,85.09
2022-12-25T22:35:21.488Z,85.14
2022-12-25T22:37:49.704Z,84.98
2022-12-25T22:40:18.031Z,85.09
2022-12-25T22:42:44.782Z,85.06
2022-12-25T22:45:12.663Z,84.96
2022-12-25T22:47:39.742Z,85.02
2022-12-25T22:50:06.884Z,84.95
2022-12-25T22:52:33.631Z,85.01
2022-12-25T22:55:00.451Z,85.00
2022-12-25T22:57:27.168Z,85.09
2022-12-25T22:59:53.902Z,84.92
2022-12-25T23:02:21.187Z,84.99
2022-12-25T23:04:48.508Z,84.90
2022-12-25T23:07:15.781Z,85.19
2022-12-25T23:09:43.953Z,85.18
2022-12-25T23:12:34.396Z,85.17
2022-12-25T23:15:01.103Z,85.22
2022-12-25T23:17:46.692Z,85.26
2022-12-25T23:20:33.909Z,85.32
2022-12-25T23:23:19.421Z,85.31
2022-12-25T23:26:04.957Z,85.32
2022-12-25T23:28:50.282Z,85.62
2022-12-25T23:31:17.156Z,85.38
2022-12-25T23:33:44.066Z,85.47
2022-12-25T23:36:10.890Z,85.56
2022-12-25T23:38:37.564Z,85.52
2022-12-25T23:41:04.192Z,85.61
2022-12-25T23:43:30.922Z,85.65
2022-12-25T23:45:57.628Z,85.76
2022-12-25T23:48:24.288Z,85.73
2022-12-25T23:50:51.303Z,85.87
2022-12-25T23:53:18.054Z,85.91
2022-12-25T23:55:48.686Z,85.99
2022-12-25T23:58:18.426Z,86.15
